sensor_id;sensor_type;location;lat;lon;timestamp;temperature;humidity
66594;DHT22;53450;42.584;23.366;2023-08-21T00:00:14;21.71;56.46
66594;DHT22;53450;42.584;23.366;2023-08-21T00:02:40;21.66;56.57
66594;DHT22;53450;42.584;23.366;2023-08-21T00:05:06;21.61;56.80
66594;DHT22;53450;42.584;23.366;2023-08-21T00:07:32;21.57;56.99
66594;DHT22;53450;42.584;23.366;2023-08-21T00:10:23;21.47;57.26
66594;DHT22;53450;42.584;23.366;2023-08-21T00:12:48;21.41;57.47
66594;DHT22;53450;42.584;23.366;2023-08-21T00:15:14;21.37;57.61
66594;DHT22;53450;42.584;23.366;2023-08-21T00:17:43;21.37;57.64
66594;DHT22;53450;42.584;23.366;2023-08-21T00:20:09;21.31;57.78
66594;DHT22;53450;42.584;23.366;2023-08-21T00:22:36;21.34;57.68
66594;DHT22;53450;42.584;23.366;2023-08-21T00:25:02;21.37;57.77
66594;DHT22;53450;42.584;23.366;2023-08-21T00:27:28;21.40;57.42
66594;DHT22;53450;42.584;23.366;2023-08-21T00:29:53;21.41;57.42
66594;DHT22;53450;42.584;23.366;2023-08-21T00:32:20;21.38;57.45
66594;DHT22;53450;42.584;23.366;2023-08-21T00:34:45;21.38;57.58
66594;DHT22;53450;42.584;23.366;2023-08-21T00:37:11;21.41;57.45
66594;DHT22;53450;42.584;23.366;2023-08-21T00:39:37;21.41;57.24
66594;DHT22;53450;42.584;23.366;2023-08-21T00:42:02;21.44;57.30
66594;DHT22;53450;42.584;23.366;2023-08-21T00:44:28;21.41;57.39
66594;DHT22;53450;42.584;23.366;2023-08-21T00:46:54;21.40;57.13
66594;DHT22;53450;42.584;23.366;2023-08-21T00:49:20;21.38;57.31
66594;DHT22;53450;42.584;23.366;2023-08-21T00:51:47;21.41;57.21
66594;DHT22;53450;42.584;23.366;2023-08-21T00:54:14;21.38;57.25
66594;DHT22;53450;42.584;23.366;2023-08-21T00:56:39;21.38;57.23
66594;DHT22;53450;42.584;23.366;2023-08-21T00:59:05;21.44;57.08
66594;DHT22;53450;42.584;23.366;2023-08-21T01:01:56;21.38;57.26
66594;DHT22;53450;42.584;23.366;2023-08-21T01:04:22;21.40;57.27
66594;DHT22;53450;42.584;23.366;2023-08-21T01:06:49;21.40;56.93
66594;DHT22;53450;42.584;23.366;2023-08-21T01:09:33;21.40;57.01
66594;DHT22;53450;42.584;23.366;2023-08-21T01:14:47;21.41;57.08
66594;DHT22;53450;42.584;23.366;2023-08-21T01:17:16;21.38;57.17
66594;DHT22;53450;42.584;23.366;2023-08-21T01:19:47;21.31;57.34
66594;DHT22;53450;42.584;23.366;2023-08-21T01:22:13;21.30;57.47
66594;DHT22;53450;42.584;23.366;2023-08-21T01:24:39;21.28;57.31
66594;DHT22;53450;42.584;23.366;2023-08-21T01:27:05;21.24;57.38
66594;DHT22;53450;42.584;23.366;2023-08-21T01:29:30;21.23;57.67
66594;DHT22;53450;42.584;23.366;2023-08-21T01:32:07;21.31;56.93
66594;DHT22;53450;42.584;23.366;2023-08-21T01:34:37;21.30;57.26
66594;DHT22;53450;42.584;23.366;2023-08-21T01:37:04;21.26;57.51
66594;DHT22;53450;42.584;23.366;2023-08-21T01:39:29;21.17;57.74
66594;DHT22;53450;42.584;23.366;2023-08-21T01:41:57;21.23;57.12
66594;DHT22;53450;42.584;23.366;2023-08-21T01:44:48;21.23;57.22
66594;DHT22;53450;42.584;23.366;2023-08-21T01:47:14;21.20;57.53
66594;DHT22;53450;42.584;23.366;2023-08-21T01:49:39;21.14;57.70
66594;DHT22;53450;42.584;23.366;2023-08-21T01:52:05;21.08;57.80
66594;DHT22;53450;42.584;23.366;2023-08-21T01:54:31;21.07;57.88
66594;DHT22;53450;42.584;23.366;2023-08-21T01:56:57;21.06;57.90
66594;DHT22;53450;42.584;23.366;2023-08-21T01:59:25;21.02;58.07
66594;DHT22;53450;42.584;23.366;2023-08-21T02:01:51;20.96;58.24
66594;DHT22;53450;42.584;23.366;2023-08-21T02:04:16;20.92;58.45
66594;DHT22;53450;42.584;23.366;2023-08-21T02:06:42;20.93;58.40
66594;DHT22;53450;42.584;23.366;2023-08-21T02:09:09;20.92;58.41
66594;DHT22;53450;42.584;23.366;2023-08-21T02:11:35;20.94;58.37
66594;DHT22;53450;42.584;23.366;2023-08-21T02:14:01;20.90;58.35
66594;DHT22;53450;42.584;23.366;2023-08-21T02:16:27;20.93;58.00
66594;DHT22;53450;42.584;23.366;2023-08-21T02:18:53;20.99;57.91
66594;DHT22;53450;42.584;23.366;2023-08-21T02:21:19;21.02;57.89
66594;DHT22;53450;42.584;23.366;2023-08-21T02:23:44;20.99;58.17
66594;DHT22;53450;42.584;23.366;2023-08-21T02:26:10;20.96;58.26
66594;DHT22;53450;42.584;23.366;2023-08-21T02:28:35;20.90;58.47
66594;DHT22;53450;42.584;23.366;2023-08-21T02:31:01;20.86;58.54
66594;DHT22;53450;42.584;23.366;2023-08-21T02:33:33;20.83;58.57
66594;DHT22;53450;42.584;23.366;2023-08-21T02:35:58;20.86;58.62
66594;DHT22;53450;42.584;23.366;2023-08-21T02:38:24;20.83;58.64
66594;DHT22;53450;42.584;23.366;2023-08-21T02:40:49;20.82;58.83
66594;DHT22;53450;42.584;23.366;2023-08-21T02:43:15;20.82;58.58
66594;DHT22;53450;42.584;23.366;2023-08-21T02:45:44;20.84;58.66
66594;DHT22;53450;42.584;23.366;2023-08-21T02:48:12;20.80;58.60
66594;DHT22;53450;42.584;23.366;2023-08-21T02:50:38;20.83;58.58
66594;DHT22;53450;42.584;23.366;2023-08-21T02:53:03;20.82;58.42
66594;DHT22;53450;42.584;23.366;2023-08-21T02:55:29;20.79;58.54
66594;DHT22;53450;42.584;23.366;2023-08-21T02:57:55;20.80;58.54
66594;DHT22;53450;42.584;23.366;2023-08-21T03:00:25;20.79;58.63
66594;DHT22;53450;42.584;23.366;2023-08-21T03:02:51;20.80;58.55
66594;DHT22;53450;42.584;23.366;2023-08-21T03:05:17;20.73;58.71
66594;DHT22;53450;42.584;23.366;2023-08-21T03:07:42;20.75;58.82
66594;DHT22;53450;42.584;23.366;2023-08-21T03:10:08;20.71;58.93
66594;DHT22;53450;42.584;23.366;2023-08-21T03:12:34;20.66;58.91
66594;DHT22;53450;42.584;23.366;2023-08-21T03:15:00;20.69;58.78
66594;DHT22;53450;42.584;23.366;2023-08-21T03:17:26;20.69;58.96
66594;DHT22;53450;42.584;23.366;2023-08-21T03:19:52;20.65;59.09
66594;DHT22;53450;42.584;23.366;2023-08-21T03:22:17;20.63;59.10
66594;DHT22;53450;42.584;23.366;2023-08-21T03:24:43;20.62;59.21
66594;DHT22;53450;42.584;23.366;2023-08-21T03:27:09;20.63;59.07
66594;DHT22;53450;42.584;23.366;2023-08-21T03:29:35;20.63;59.01
66594;DHT22;53450;42.584;23.366;2023-08-21T03:32:00;20.68;58.86
66594;DHT22;53450;42.584;23.366;2023-08-21T03:34:26;20.53;59.09
66594;DHT22;53450;42.584;23.366;2023-08-21T03:36:56;20.56;59.19
66594;DHT22;53450;42.584;23.366;2023-08-21T03:39:22;20.63;58.78
66594;DHT22;53450;42.584;23.366;2023-08-21T03:41:50;20.62;59.11
66594;DHT22;53450;42.584;23.366;2023-08-21T03:44:15;20.59;59.31
66594;DHT22;53450;42.584;23.366;2023-08-21T03:46:41;20.59;59.28
66594;DHT22;53450;42.584;23.366;2023-08-21T03:49:08;20.59;59.04
66594;DHT22;53450;42.584;23.366;2023-08-21T03:51:34;20.66;58.70
66594;DHT22;53450;42.584;23.366;2023-08-21T03:54:00;20.87;58.04
66594;DHT22;53450;42.584;23.366;2023-08-21T03:56:29;21.11;57.24
66594;DHT22;53450;42.584;23.366;2023-08-21T03:58:55;21.34;56.70
66594;DHT22;53450;42.584;23.366;2023-08-21T04:01:21;21.50;56.21
66594;DHT22;53450;42.584;23.366;2023-08-21T04:03:47;21.61;55.94
66594;DHT22;53450;42.584;23.366;2023-08-21T04:06:12;21.75;55.61
66594;DHT22;53450;42.584;23.366;2023-08-21T04:09:03;22.06;54.94
66594;DHT22;53450;42.584;23.366;2023-08-21T04:11:34;22.00;54.91
66594;DHT22;53450;42.584;23.366;2023-08-21T04:14:01;21.61;56.09
66594;DHT22;53450;42.584;23.366;2023-08-21T04:16:29;21.44;56.67
66594;DHT22;53450;42.584;23.366;2023-08-21T04:18:57;21.37;57.20
66594;DHT22;53450;42.584;23.366;2023-08-21T04:21:22;21.34;57.28
66594;DHT22;53450;42.584;23.366;2023-08-21T04:23:50;21.37;57.23
66594;DHT22;53450;42.584;23.366;2023-08-21T04:26:20;21.42;57.17
66594;DHT22;53450;42.584;23.366;2023-08-21T04:28:46;21.45;57.39
66594;DHT22;53450;42.584;23.366;2023-08-21T04:31:19;21.52;57.42
66594;DHT22;53450;42.584;23.366;2023-08-21T04:33:47;21.61;57.39
66594;DHT22;53450;42.584;23.366;2023-08-21T04:36:15;21.65;57.31
66594;DHT22;53450;42.584;23.366;2023-08-21T04:38:41;21.78;56.99
66594;DHT22;53450;42.584;23.366;2023-08-21T04:41:08;21.83;57.00
66594;DHT22;53450;42.584;23.366;2023-08-21T04:43:35;21.96;56.57
66594;DHT22;53450;42.584;23.366;2023-08-21T04:46:03;22.06;56.57
66594;DHT22;53450;42.584;23.366;2023-08-21T04:48:30;22.16;56.74
66594;DHT22;53450;42.584;23.366;2023-08-21T04:50:55;22.26;56.33
66594;DHT22;53450;42.584;23.366;2023-08-21T04:53:22;22.36;56.23
66594;DHT22;53450;42.584;23.366;2023-08-21T04:55:47;22.51;55.99
66594;DHT22;53450;42.584;23.366;2023-08-21T04:58:13;22.51;56.44
66594;DHT22;53450;42.584;23.366;2023-08-21T05:00:40;22.57;56.76
66594;DHT22;53450;42.584;23.366;2023-08-21T05:03:06;22.71;55.98
66594;DHT22;53450;42.584;23.366;2023-08-21T05:05:35;22.78;55.42
66594;DHT22;53450;42.584;23.366;2023-08-21T05:08:01;22.81;56.28
66594;DHT22;53450;42.584;23.366;2023-08-21T05:10:27;22.98;56.17
66594;DHT22;53450;42.584;23.366;2023-08-21T05:13:18;22.91;58.70
66594;DHT22;53450;42.584;23.366;2023-08-21T05:16:09;22.91;58.99
66594;DHT22;53450;42.584;23.366;2023-08-21T05:18:37;23.01;58.57
66594;DHT22;53450;42.584;23.366;2023-08-21T05:21:03;23.09;58.24
66594;DHT22;53450;42.584;23.366;2023-08-21T05:23:30;23.15;58.70
66594;DHT22;53450;42.584;23.366;2023-08-21T05:26:03;23.23;56.97
66594;DHT22;53450;42.584;23.366;2023-08-21T05:28:29;23.33;56.63
66594;DHT22;53450;42.584;23.366;2023-08-21T05:30:55;23.43;57.24
66594;DHT22;53450;42.584;23.366;2023-08-21T05:33:20;23.36;57.70
66594;DHT22;53450;42.584;23.366;2023-08-21T05:35:55;23.25;59.34
66594;DHT22;53450;42.584;23.366;2023-08-21T05:38:22;23.26;57.91
66594;DHT22;53450;42.584;23.366;2023-08-21T05:40:48;23.50;57.29
66594;DHT22;53450;42.584;23.366;2023-08-21T05:43:16;23.57;56.60
66594;DHT22;53450;42.584;23.366;2023-08-21T05:45:44;23.69;56.78
66594;DHT22;53450;42.584;23.366;2023-08-21T05:48:11;23.74;56.93
66594;DHT22;53450;42.584;23.366;2023-08-21T05:50:37;23.88;56.77
66594;DHT22;53450;42.584;23.366;2023-08-21T05:53:03;24.07;57.76
66594;DHT22;53450;42.584;23.366;2023-08-21T05:55:32;24.13;58.84
66594;DHT22;53450;42.584;23.366;2023-08-21T05:58:00;23.98;59.56
66594;DHT22;53450;42.584;23.366;2023-08-21T06:00:38;24.07;58.89
66594;DHT22;53450;42.584;23.366;2023-08-21T06:03:07;24.00;58.47
66594;DHT22;53450;42.584;23.366;2023-08-21T06:05:53;24.17;58.02
66594;DHT22;53450;42.584;23.366;2023-08-21T06:08:19;24.20;57.52
66594;DHT22;53450;42.584;23.366;2023-08-21T06:10:45;24.26;57.39
66594;DHT22;53450;42.584;23.366;2023-08-21T06:13:11;24.42;58.02
66594;DHT22;53450;42.584;23.366;2023-08-21T06:15:36;24.59;57.61
66594;DHT22;53450;42.584;23.366;2023-08-21T06:18:05;24.71;57.30
66594;DHT22;53450;42.584;23.366;2023-08-21T06:20:33;24.72;58.66
66594;DHT22;53450;42.584;23.366;2023-08-21T06:23:00;24.69;57.91
66594;DHT22;53450;42.584;23.366;2023-08-21T06:25:29;24.71;57.02
66594;DHT22;53450;42.584;23.366;2023-08-21T06:28:00;24.76;57.34
66594;DHT22;53450;42.584;23.366;2023-08-21T06:30:26;24.71;55.90
66594;DHT22;53450;42.584;23.366;2023-08-21T06:32:52;24.76;56.22
66594;DHT22;53450;42.584;23.366;2023-08-21T06:35:18;24.92;55.33
66594;DHT22;53450;42.584;23.366;2023-08-21T06:37:46;25.06;55.67
66594;DHT22;53450;42.584;23.366;2023-08-21T06:40:14;25.20;54.96
66594;DHT22;53450;42.584;23.366;2023-08-21T06:42:42;25.23;55.70
66594;DHT22;53450;42.584;23.366;2023-08-21T06:45:08;25.33;56.07
66594;DHT22;53450;42.584;23.366;2023-08-21T06:47:34;25.26;54.08
66594;DHT22;53450;42.584;23.366;2023-08-21T06:50:28;25.24;55.34
66594;DHT22;53450;42.584;23.366;2023-08-21T06:52:56;25.28;54.97
66594;DHT22;53450;42.584;23.366;2023-08-21T06:55:22;25.35;54.37
66594;DHT22;53450;42.584;23.366;2023-08-21T06:57:48;25.44;54.78
66594;DHT22;53450;42.584;23.366;2023-08-21T07:00:15;25.58;53.82
66594;DHT22;53450;42.584;23.366;2023-08-21T07:02:41;25.72;51.45
66594;DHT22;53450;42.584;23.366;2023-08-21T07:05:07;25.79;51.60
66594;DHT22;53450;42.584;23.366;2023-08-21T07:07:33;25.85;51.43
66594;DHT22;53450;42.584;23.366;2023-08-21T07:10:01;25.85;51.71
66594;DHT22;53450;42.584;23.366;2023-08-21T07:12:32;25.86;51.67
66594;DHT22;53450;42.584;23.366;2023-08-21T07:15:00;25.93;48.10
66594;DHT22;53450;42.584;23.366;2023-08-21T07:17:26;25.92;50.32
66594;DHT22;53450;42.584;23.366;2023-08-21T07:19:54;25.96;50.95
66594;DHT22;53450;42.584;23.366;2023-08-21T07:22:45;25.98;49.91
66594;DHT22;53450;42.584;23.366;2023-08-21T07:25:36;26.06;51.13
66594;DHT22;53450;42.584;23.366;2023-08-21T07:28:02;26.01;51.21
66594;DHT22;53450;42.584;23.366;2023-08-21T07:30:31;26.12;51.42
66594;DHT22;53450;42.584;23.366;2023-08-21T07:32:57;26.25;51.39
66594;DHT22;53450;42.584;23.366;2023-08-21T07:35:22;26.20;49.72
66594;DHT22;53450;42.584;23.366;2023-08-21T07:37:48;26.26;51.31
66594;DHT22;53450;42.584;23.366;2023-08-21T07:40:14;26.39;50.79
66594;DHT22;53450;42.584;23.366;2023-08-21T07:42:42;26.50;49.95
66594;DHT22;53450;42.584;23.366;2023-08-21T07:45:18;26.44;48.06
66594;DHT22;53450;42.584;23.366;2023-08-21T07:47:52;26.43;47.92
66594;DHT22;53450;42.584;23.366;2023-08-21T07:50:24;26.43;48.24
66594;DHT22;53450;42.584;23.366;2023-08-21T07:52:58;26.60;47.71
66594;DHT22;53450;42.584;23.366;2023-08-21T07:55:23;26.80;48.48
66594;DHT22;53450;42.584;23.366;2023-08-21T07:57:49;26.86;47.47
66594;DHT22;53450;42.584;23.366;2023-08-21T08:00:18;26.80;46.33
66594;DHT22;53450;42.584;23.366;2023-08-21T08:02:44;26.94;45.97
66594;DHT22;53450;42.584;23.366;2023-08-21T08:05:17;27.02;47.15
66594;DHT22;53450;42.584;23.366;2023-08-21T08:07:43;27.07;45.29
66594;DHT22;53450;42.584;23.366;2023-08-21T08:10:09;26.99;45.42
66594;DHT22;53450;42.584;23.366;2023-08-21T08:12:34;27.05;45.17
66594;DHT22;53450;42.584;23.366;2023-08-21T08:15:00;27.04;45.85
66594;DHT22;53450;42.584;23.366;2023-08-21T08:17:27;27.22;44.83
66594;DHT22;53450;42.584;23.366;2023-08-21T08:20:02;27.09;45.51
66594;DHT22;53450;42.584;23.366;2023-08-21T08:22:28;27.19;45.77
66594;DHT22;53450;42.584;23.366;2023-08-21T08:24:54;27.25;44.43
66594;DHT22;53450;42.584;23.366;2023-08-21T08:27:24;27.34;44.46
66594;DHT22;53450;42.584;23.366;2023-08-21T08:29:50;27.46;45.74
66594;DHT22;53450;42.584;23.366;2023-08-21T08:32:21;27.50;43.44
66594;DHT22;53450;42.584;23.366;2023-08-21T08:34:54;27.53;42.56
66594;DHT22;53450;42.584;23.366;2023-08-21T08:37:31;27.67;43.47
66594;DHT22;53450;42.584;23.366;2023-08-21T08:39:57;27.79;43.69
66594;DHT22;53450;42.584;23.366;2023-08-21T08:42:34;27.79;43.43
66594;DHT22;53450;42.584;23.366;2023-08-21T08:45:02;27.70;43.41
66594;DHT22;53450;42.584;23.366;2023-08-21T08:47:38;27.86;42.59
66594;DHT22;53450;42.584;23.366;2023-08-21T08:50:05;27.98;42.46
66594;DHT22;53450;42.584;23.366;2023-08-21T08:52:36;27.98;41.76
66594;DHT22;53450;42.584;23.366;2023-08-21T08:55:02;27.92;42.81
66594;DHT22;53450;42.584;23.366;2023-08-21T08:57:28;28.01;41.84
66594;DHT22;53450;42.584;23.366;2023-08-21T08:59:54;27.98;41.03
66594;DHT22;53450;42.584;23.366;2023-08-21T09:02:30;28.06;42.39
66594;DHT22;53450;42.584;23.366;2023-08-21T09:05:23;28.13;40.96
66594;DHT22;53450;42.584;23.366;2023-08-21T09:08:09;28.08;40.75
66594;DHT22;53450;42.584;23.366;2023-08-21T09:10:36;28.00;40.92
66594;DHT22;53450;42.584;23.366;2023-08-21T09:13:15;27.93;42.15
66594;DHT22;53450;42.584;23.366;2023-08-21T09:15:43;28.04;42.16
66594;DHT22;53450;42.584;23.366;2023-08-21T09:18:10;28.01;41.81
66594;DHT22;53450;42.584;23.366;2023-08-21T09:20:40;27.86;40.53
66594;DHT22;53450;42.584;23.366;2023-08-21T09:23:20;27.87;40.50
66594;DHT22;53450;42.584;23.366;2023-08-21T09:25:48;28.01;41.56
66594;DHT22;53450;42.584;23.366;2023-08-21T09:28:15;28.25;40.77
66594;DHT22;53450;42.584;23.366;2023-08-21T09:30:50;28.40;39.89
66594;DHT22;53450;42.584;23.366;2023-08-21T09:33:24;28.48;39.55
66594;DHT22;53450;42.584;23.366;2023-08-21T09:35:53;28.55;41.22
66594;DHT22;53450;42.584;23.366;2023-08-21T09:38:22;28.59;40.28
66594;DHT22;53450;42.584;23.366;2023-08-21T09:40:52;28.62;39.95
66594;DHT22;53450;42.584;23.366;2023-08-21T09:43:18;28.68;39.10
66594;DHT22;53450;42.584;23.366;2023-08-21T09:45:52;28.69;39.77
66594;DHT22;53450;42.584;23.366;2023-08-21T09:48:25;28.80;39.43
66594;DHT22;53450;42.584;23.366;2023-08-21T09:51:03;28.80;39.88
66594;DHT22;53450;42.584;23.366;2023-08-21T09:53:55;28.61;39.21
66594;DHT22;53450;42.584;23.366;2023-08-21T09:56:25;28.62;39.88
66594;DHT22;53450;42.584;23.366;2023-08-21T09:58:55;28.78;39.17
66594;DHT22;53450;42.584;23.366;2023-08-21T10:01:21;28.86;39.51
66594;DHT22;53450;42.584;23.366;2023-08-21T10:03:48;28.92;38.37
66594;DHT22;53450;42.584;23.366;2023-08-21T10:06:17;29.06;39.21
66594;DHT22;53450;42.584;23.366;2023-08-21T10:08:48;29.10;38.71
66594;DHT22;53450;42.584;23.366;2023-08-21T10:11:19;29.23;38.38
66594;DHT22;53450;42.584;23.366;2023-08-21T10:13:45;29.35;38.64
66594;DHT22;53450;42.584;23.366;2023-08-21T10:16:22;29.35;37.24
66594;DHT22;53450;42.584;23.366;2023-08-21T10:18:54;29.38;38.55
66594;DHT22;53450;42.584;23.366;2023-08-21T10:21:21;29.51;37.55
66594;DHT22;53450;42.584;23.366;2023-08-21T10:23:54;29.61;37.79
66594;DHT22;53450;42.584;23.366;2023-08-21T10:26:23;29.60;37.46
66594;DHT22;53450;42.584;23.366;2023-08-21T10:31:27;29.67;37.02
66594;DHT22;53450;42.584;23.366;2023-08-21T10:34:21;29.82;37.26
66594;DHT22;53450;42.584;23.366;2023-08-21T10:37:32;29.95;37.11
66594;DHT22;53450;42.584;23.366;2023-08-21T10:39:58;29.95;35.76
66594;DHT22;53450;42.584;23.366;2023-08-21T10:42:44;29.89;36.53
66594;DHT22;53450;42.584;23.366;2023-08-21T10:45:53;29.98;36.16
66594;DHT22;53450;42.584;23.366;2023-08-21T10:48:45;30.13;35.14
66594;DHT22;53450;42.584;23.366;2023-08-21T10:51:11;30.12;34.53
66594;DHT22;53450;42.584;23.366;2023-08-21T10:53:40;30.22;36.10
66594;DHT22;53450;42.584;23.366;2023-08-21T10:56:10;30.18;35.41
66594;DHT22;53450;42.584;23.366;2023-08-21T10:58:43;30.39;34.72
66594;DHT22;53450;42.584;23.366;2023-08-21T11:01:44;30.40;34.71
66594;DHT22;53450;42.584;23.366;2023-08-21T11:04:41;30.56;33.17
66594;DHT22;53450;42.584;23.366;2023-08-21T11:07:07;30.56;34.17
66594;DHT22;53450;42.584;23.366;2023-08-21T11:09:36;30.61;34.37
66594;DHT22;53450;42.584;23.366;2023-08-21T11:12:13;30.20;33.45
66594;DHT22;53450;42.584;23.366;2023-08-21T11:14:50;30.36;32.91
66594;DHT22;53450;42.584;23.366;2023-08-21T11:17:16;30.66;32.95
66594;DHT22;53450;42.584;23.366;2023-08-21T11:19:46;30.91;32.31
66594;DHT22;53450;42.584;23.366;2023-08-21T11:22:14;31.12;33.27
66594;DHT22;53450;42.584;23.366;2023-08-21T11:24:44;31.34;33.85
66594;DHT22;53450;42.584;23.366;2023-08-21T11:27:20;31.24;33.43
66594;DHT22;53450;42.584;23.366;2023-08-21T11:29:51;31.29;33.63
66594;DHT22;53450;42.584;23.366;2023-08-21T11:32:23;31.48;33.25
66594;DHT22;53450;42.584;23.366;2023-08-21T11:34:53;31.46;33.12
66594;DHT22;53450;42.584;23.366;2023-08-21T11:37:28;31.53;33.44
66594;DHT22;53450;42.584;23.366;2023-08-21T11:40:07;31.17;33.38
66594;DHT22;53450;42.584;23.366;2023-08-21T11:43:03;30.49;34.15
66594;DHT22;53450;42.584;23.366;2023-08-21T11:45:33;30.22;34.63
66594;DHT22;53450;42.584;23.366;2023-08-21T11:48:01;30.01;35.28
66594;DHT22;53450;42.584;23.366;2023-08-21T11:50:29;30.33;34.98
66594;DHT22;53450;42.584;23.366;2023-08-21T11:52:55;30.59;34.97
66594;DHT22;53450;42.584;23.366;2023-08-21T11:55:22;30.90;34.24
66594;DHT22;53450;42.584;23.366;2023-08-21T11:57:51;30.97;33.45
66594;DHT22;53450;42.584;23.366;2023-08-21T12:00:27;30.91;32.56
66594;DHT22;53450;42.584;23.366;2023-08-21T12:03:00;31.15;32.63
66594;DHT22;53450;42.584;23.366;2023-08-21T12:05:28;31.28;32.25
66594;DHT22;53450;42.584;23.366;2023-08-21T12:08:01;31.18;32.86
66594;DHT22;53450;42.584;23.366;2023-08-21T12:10:30;30.99;32.46
66594;DHT22;53450;42.584;23.366;2023-08-21T12:12:56;30.99;32.98
66594;DHT22;53450;42.584;23.366;2023-08-21T12:15:29;31.10;31.93
66594;DHT22;53450;42.584;23.366;2023-08-21T12:17:55;31.07;32.97
66594;DHT22;53450;42.584;23.366;2023-08-21T12:20:28;31.15;31.75
66594;DHT22;53450;42.584;23.366;2023-08-21T12:22:54;31.14;32.11
66594;DHT22;53450;42.584;23.366;2023-08-21T12:25:20;31.14;31.53
66594;DHT22;53450;42.584;23.366;2023-08-21T12:27:48;31.11;31.90
66594;DHT22;53450;42.584;23.366;2023-08-21T12:30:14;31.21;32.01
66594;DHT22;53450;42.584;23.366;2023-08-21T12:32:47;31.21;31.65
66594;DHT22;53450;42.584;23.366;2023-08-21T12:35:16;31.29;32.63
66594;DHT22;53450;42.584;23.366;2023-08-21T12:37:41;31.22;31.41
66594;DHT22;53450;42.584;23.366;2023-08-21T12:40:07;31.21;31.85
66594;DHT22;53450;42.584;23.366;2023-08-21T12:42:59;31.06;31.56
66594;DHT22;53450;42.584;23.366;2023-08-21T12:45:50;31.06;31.55
66594;DHT22;53450;42.584;23.366;2023-08-21T12:48:16;31.06;31.99
66594;DHT22;53450;42.584;23.366;2023-08-21T12:54:18;31.38;30.64
66594;DHT22;53450;42.584;23.366;2023-08-21T12:56:44;31.15;31.51
66594;DHT22;53450;42.584;23.366;2023-08-21T12:59:10;31.35;31.80
66594;DHT22;53450;42.584;23.366;2023-08-21T13:01:35;31.49;31.16
66594;DHT22;53450;42.584;23.366;2023-08-21T13:04:03;31.58;31.60
66594;DHT22;53450;42.584;23.366;2023-08-21T13:06:28;31.36;32.27
66594;DHT22;53450;42.584;23.366;2023-08-21T13:08:56;31.08;32.34
66594;DHT22;53450;42.584;23.366;2023-08-21T13:11:22;31.31;32.07
66594;DHT22;53450;42.584;23.366;2023-08-21T13:13:48;31.45;31.41
66594;DHT22;53450;42.584;23.366;2023-08-21T13:16:14;31.46;31.18
66594;DHT22;53450;42.584;23.366;2023-08-21T13:18:39;31.35;31.51
66594;DHT22;53450;42.584;23.366;2023-08-21T13:21:07;30.99;32.45
66594;DHT22;53450;42.584;23.366;2023-08-21T13:23:33;30.69;32.33
66594;DHT22;53450;42.584;23.366;2023-08-21T13:26:00;30.47;32.53
66594;DHT22;53450;42.584;23.366;2023-08-21T13:28:27;30.40;32.70
66594;DHT22;53450;42.584;23.366;2023-08-21T13:30:52;30.19;32.87
66594;DHT22;53450;42.584;23.366;2023-08-21T13:33:18;30.26;32.62
66594;DHT22;53450;42.584;23.366;2023-08-21T13:35:44;30.44;32.71
66594;DHT22;53450;42.584;23.366;2023-08-21T13:38:12;30.84;32.97
66594;DHT22;53450;42.584;23.366;2023-08-21T13:40:37;31.10;32.02
66594;DHT22;53450;42.584;23.366;2023-08-21T13:43:28;31.36;31.09
66594;DHT22;53450;42.584;23.366;2023-08-21T13:46:19;31.32;30.06
66594;DHT22;53450;42.584;23.366;2023-08-21T13:48:45;31.32;29.88
66594;DHT22;53450;42.584;23.366;2023-08-21T13:51:11;31.28;30.44
66594;DHT22;53450;42.584;23.366;2023-08-21T13:53:36;31.46;32.14
66594;DHT22;53450;42.584;23.366;2023-08-21T13:56:11;31.65;32.67
66594;DHT22;53450;42.584;23.366;2023-08-21T13:58:37;31.55;32.73
66594;DHT22;53450;42.584;23.366;2023-08-21T14:01:05;31.41;32.44
66594;DHT22;53450;42.584;23.366;2023-08-21T14:03:33;31.38;32.51
66594;DHT22;53450;42.584;23.366;2023-08-21T14:06:01;31.39;31.80
66594;DHT22;53450;42.584;23.366;2023-08-21T14:08:29;31.43;31.77
66594;DHT22;53450;42.584;23.366;2023-08-21T14:11:04;31.56;31.23
66594;DHT22;53450;42.584;23.366;2023-08-21T14:13:43;31.80;31.35
66594;DHT22;53450;42.584;23.366;2023-08-21T14:16:08;31.52;31.43
66594;DHT22;53450;42.584;23.366;2023-08-21T14:18:34;31.17;32.51
66594;DHT22;53450;42.584;23.366;2023-08-21T14:21:00;30.80;33.28
66594;DHT22;53450;42.584;23.366;2023-08-21T14:23:30;30.76;32.93
66594;DHT22;53450;42.584;23.366;2023-08-21T14:25:56;30.71;33.00
66594;DHT22;53450;42.584;23.366;2023-08-21T14:28:22;30.88;33.20
66594;DHT22;53450;42.584;23.366;2023-08-21T14:30:48;30.70;34.05
66594;DHT22;53450;42.584;23.366;2023-08-21T14:33:16;30.26;35.83
66594;DHT22;53450;42.584;23.366;2023-08-21T14:35:46;29.98;36.90
66594;DHT22;53450;42.584;23.366;2023-08-21T14:38:19;29.58;38.03
66594;DHT22;53450;42.584;23.366;2023-08-21T14:40:45;29.35;38.86
66594;DHT22;53450;42.584;23.366;2023-08-21T14:43:18;29.34;39.67
66594;DHT22;53450;42.584;23.366;2023-08-21T14:45:44;29.34;39.75
66594;DHT22;53450;42.584;23.366;2023-08-21T14:48:17;29.24;39.64
66594;DHT22;53450;42.584;23.366;2023-08-21T14:50:50;29.17;39.46
66594;DHT22;53450;42.584;23.366;2023-08-21T14:53:21;29.22;38.36
66594;DHT22;53450;42.584;23.366;2023-08-21T14:55:46;29.51;38.20
66594;DHT22;53450;42.584;23.366;2023-08-21T14:58:17;29.54;36.99
66594;DHT22;53450;42.584;23.366;2023-08-21T15:00:45;29.64;38.05
66594;DHT22;53450;42.584;23.366;2023-08-21T15:03:46;29.71;38.63
66594;DHT22;53450;42.584;23.366;2023-08-21T15:06:12;29.67;38.72
66594;DHT22;53450;42.584;23.366;2023-08-21T15:08:38;29.44;39.19
66594;DHT22;53450;42.584;23.366;2023-08-21T15:11:05;29.55;38.95
66594;DHT22;53450;42.584;23.366;2023-08-21T15:13:31;29.82;39.56
66594;DHT22;53450;42.584;23.366;2023-08-21T15:15:59;29.99;39.71
66594;DHT22;53450;42.584;23.366;2023-08-21T15:18:25;30.11;39.44
66594;DHT22;53450;42.584;23.366;2023-08-21T15:20:50;30.25;39.75
66594;DHT22;53450;42.584;23.366;2023-08-21T15:23:16;30.26;39.14
66594;DHT22;53450;42.584;23.366;2023-08-21T15:25:42;30.26;38.69
66594;DHT22;53450;42.584;23.366;2023-08-21T15:28:07;30.25;37.63
66594;DHT22;53450;42.584;23.366;2023-08-21T15:30:40;30.25;38.18
66594;DHT22;53450;42.584;23.366;2023-08-21T15:33:06;30.23;37.39
66594;DHT22;53450;42.584;23.366;2023-08-21T15:35:35;30.44;37.54
66594;DHT22;53450;42.584;23.366;2023-08-21T15:38:00;30.53;36.99